createdAt,value
2022-12-31T00:01:56.905Z,96086.06
2022-12-31T00:04:58.531Z,96087.72
2022-12-31T00:08:01.560Z,96079.56
2022-12-31T00:11:03.124Z,96086.56
2022-12-31T00:14:05.827Z,96098.78
2022-12-31T00:17:07.582Z,96095.91
2022-12-31T00:20:09.509Z,96093.78
2022-12-31T00:23:11.626Z,96098.81
2022-12-31T00:26:16.295Z,96103.97
2022-12-31T00:29:17.821Z,96114.47
2022-12-31T00:32:19.377Z,96107.66
2022-12-31T00:35:20.981Z,96110.19
2022-12-31T00:38:22.508Z,96112.72
2022-12-31T00:41:25.578Z,96111.38
2022-12-31T00:44:27.179Z,96115.72
2022-12-31T00:47:28.714Z,96111.06
2022-12-31T00:50:30.246Z,96118.94
2022-12-31T00:53:31.812Z,96115.75
2022-12-31T00:56:33.355Z,96136.81
2022-12-31T00:59:34.903Z,96141.16
2022-12-31T01:02:36.569Z,96149.19
2022-12-31T01:05:38.370Z,96149.19
2022-12-31T01:08:40.083Z,96157.84
2022-12-31T01:11:42.036Z,96151.66
2022-12-31T01:14:43.590Z,96165.22
2022-12-31T01:17:45.080Z,96165.38
2022-12-31T01:20:46.623Z,96155.19
2022-12-31T01:23:48.330Z,96168.38
2022-12-31T01:26:51.188Z,96162.72
2022-12-31T01:29:52.710Z,96178.41
2022-12-31T01:32:54.227Z,96182.94
2022-12-31T01:35:55.765Z,96179.94
2022-12-31T01:38:59.463Z,96185.13
2022-12-31T01:42:01.006Z,96185.78
2022-12-31T01:45:02.691Z,96194.34
2022-12-31T01:48:04.314Z,96185.16
2022-12-31T01:51:09.549Z,96173.28
2022-12-31T01:54:13.779Z,96173.81
2022-12-31T01:57:16.231Z,96170.78
2022-12-31T02:00:17.900Z,96164.28
2022-12-31T02:03:22.423Z,96160.47
2022-12-31T02:06:35.097Z,96168.31
2022-12-31T02:09:38.474Z,96153.78
2022-12-31T02:12:40.299Z,96178.16
2022-12-31T02:16:00.165Z,96180.34
2022-12-31T02:19:35.935Z,96176.69
2022-12-31T02:23:03.822Z,96180.84
2022-12-31T02:26:34.384Z,96181.88
2022-12-31T02:29:47.821Z,96184.22
2022-12-31T02:32:52.454Z,96183.06
2022-12-31T02:35:58.426Z,96206.31
2022-12-31T02:39:03.023Z,96184.56
2022-12-31T02:42:04.674Z,96187.59
2022-12-31T02:45:08.056Z,96188.25
2022-12-31T02:48:24.770Z,96193.44
2022-12-31T02:51:57.360Z,96205.66
2022-12-31T02:55:25.151Z,96202.47
2022-12-31T02:58:48.036Z,96203.81
2022-12-31T03:02:13.976Z,96201.31
2022-12-31T03:05:19.415Z,96215.19
2022-12-31T03:08:23.178Z,96216.69
2022-12-31T03:11:43.453Z,96211.19
2022-12-31T03:14:45.128Z,96225.22
2022-12-31T03:18:01.840Z,96228.88
2022-12-31T03:21:22.032Z,96233.75
2022-12-31T03:24:42.218Z,96219.03
2022-12-31T03:27:45.139Z,96224.56
2022-12-31T03:30:50.455Z,96237.94
2022-12-31T03:33:52.009Z,96228.53
2022-12-31T03:36:53.560Z,96229.88
2022-12-31T03:39:55.128Z,96234.25
2022-12-31T03:42:56.941Z,96243.41
2022-12-31T03:45:59.787Z,96245.09
2022-12-31T03:49:01.477Z,96255.63
2022-12-31T03:52:03.546Z,96250.78
2022-12-31T03:55:05.821Z,96244.13
2022-12-31T03:58:07.387Z,96252.16
2022-12-31T04:01:08.993Z,96251.78
2022-12-31T04:04:10.551Z,96262.19
2022-12-31T04:07:12.119Z,96261.00
2022-12-31T04:10:16.121Z,96261.53
2022-12-31T04:13:17.663Z,96256.50
2022-12-31T04:16:19.266Z,96261.19
2022-12-31T04:19:20.891Z,96262.53
2022-12-31T04:22:22.455Z,96259.53
2022-12-31T04:25:24.004Z,96265.88
2022-12-31T04:28:25.777Z,96266.06
2022-12-31T04:31:27.588Z,96278.63
2022-12-31T04:34:29.157Z,96271.91
2022-12-31T04:37:30.725Z,96276.59
2022-12-31T04:40:32.328Z,96283.63
2022-12-31T04:43:33.824Z,96288.66
2022-12-31T04:46:35.924Z,96277.00
2022-12-31T04:49:37.460Z,96283.66
2022-12-31T04:52:42.904Z,96280.84
2022-12-31T04:55:46.107Z,96285.00
2022-12-31T04:58:47.819Z,96292.72
2022-12-31T05:01:49.464Z,96290.72
2022-12-31T05:04:51.018Z,96300.91
2022-12-31T05:07:52.590Z,96306.25
2022-12-31T05:10:54.139Z,96299.75
2022-12-31T05:13:57.378Z,96296.72
2022-12-31T05:16:59.360Z,96299.22
2022-12-31T05:20:00.950Z,96301.38
2022-12-31T05:23:02.557Z,96306.44
2022-12-31T05:26:04.200Z,96306.09
2022-12-31T05:29:05.799Z,96290.66
2022-12-31T05:32:07.328Z,96292.50
2022-12-31T05:35:09.355Z,96301.22
2022-12-31T05:38:11.113Z,96302.91
2022-12-31T05:41:12.651Z,96306.41
2022-12-31T05:44:14.322Z,96310.94
2022-12-31T05:47:16.475Z,96317.47
2022-12-31T05:50:18.164Z,96323.50
2022-12-31T05:53:19.714Z,96327.84
2022-12-31T05:56:21.281Z,96334.88
2022-12-31T05:59:22.834Z,96330.53
2022-12-31T06:02:24.676Z,96339.22
2022-12-31T06:05:26.790Z,96339.41
2022-12-31T06:08:28.381Z,96335.91
2022-12-31T06:11:30.223Z,96333.06
2022-12-31T06:14:32.019Z,96319.97
2022-12-31T06:17:33.582Z,96322.34
2022-12-31T06:20:38.786Z,96308.56
2022-12-31T06:23:40.925Z,96333.69
2022-12-31T06:26:42.833Z,96334.88
2022-12-31T06:29:45.728Z,96344.09
2022-12-31T06:32:47.298Z,96338.91
2022-12-31T06:35:48.889Z,96346.94
2022-12-31T06:38:50.644Z,96338.56
2022-12-31T06:41:52.170Z,96341.94
2022-12-31T06:44:53.746Z,96358.84
2022-12-31T06:47:55.278Z,96342.56
2022-12-31T06:50:57.694Z,96342.41
2022-12-31T06:53:59.228Z,96344.09
2022-12-31T06:57:01.066Z,96350.97
2022-12-31T07:00:03.021Z,96341.09
2022-12-31T07:03:26.087Z,96350.78
2022-12-31T07:06:37.314Z,96352.81
2022-12-31T07:10:14.400Z,96352.81
2022-12-31T07:13:23.479Z,96342.09
2022-12-31T07:16:42.246Z,96336.91
2022-12-31T07:19:57.713Z,96343.41
2022-12-31T07:22:59.816Z,96359.50
2022-12-31T07:26:33.881Z,96364.03
2022-12-31T07:30:09.537Z,96366.06
2022-12-31T07:33:30.046Z,96360.69
2022-12-31T07:36:37.646Z,96362.69
2022-12-31T07:39:51.478Z,96374.41
2022-12-31T07:43:06.016Z,96375.09
2022-12-31T07:46:19.263Z,96380.28
2022-12-31T07:49:21.104Z,96386.66
2022-12-31T07:52:23.044Z,96386.66
2022-12-31T07:55:24.644Z,96393.84
2022-12-31T07:58:50.491Z,96408.41
2022-12-31T08:02:04.105Z,96412.09
2022-12-31T08:05:18.725Z,96411.59
2022-12-31T08:08:46.588Z,96421.63
2022-12-31T08:11:56.704Z,96402.19
2022-12-31T08:14:58.418Z,96416.78
2022-12-31T08:18:00.567Z,96426.13
2022-12-31T08:21:17.256Z,96426.97
2022-12-31T08:24:57.032Z,96427.97
2022-12-31T08:28:11.544Z,96427.97
2022-12-31T08:31:36.018Z,96432.34
2022-12-31T08:35:06.514Z,96419.94
2022-12-31T08:38:23.404Z,96418.78
2022-12-31T08:41:43.056Z,96414.59
2022-12-31T08:45:12.383Z,96429.81
2022-12-31T08:48:43.378Z,96428.13
2022-12-31T08:51:45.642Z,96433.69
2022-12-31T08:54:47.960Z,96445.88
2022-12-31T08:57:55.573Z,96440.53
2022-12-31T09:00:59.424Z,96444.91
2022-12-31T09:04:30.047Z,96439.53
2022-12-31T09:07:56.525Z,96431.50
2022-12-31T09:11:20.895Z,96421.97
2022-12-31T09:14:45.670Z,96430.66
2022-12-31T09:17:50.427Z,96416.09
2022-12-31T09:20:52.174Z,96429.34
2022-12-31T09:23:54.147Z,96434.34
2022-12-31T09:27:16.114Z,96434.88
2022-12-31T09:30:18.790Z,96427.50
2022-12-31T09:33:35.567Z,96437.88
2022-12-31T09:36:45.037Z,96443.91
2022-12-31T09:39:48.390Z,96438.06
2022-12-31T09:43:27.908Z,96436.72
2022-12-31T09:46:32.689Z,96430.03
2022-12-31T09:49:39.943Z,96435.72
2022-12-31T09:52:50.512Z,96441.91
2022-12-31T09:56:02.219Z,96430.50
2022-12-31T09:59:13.532Z,96445.75
2022-12-31T10:02:37.127Z,96443.44
2022-12-31T10:06:04.436Z,96442.41
2022-12-31T10:09:31.765Z,96450.44
2022-12-31T10:12:47.165Z,96448.06
2022-12-31T10:16:04.104Z,96444.91
2022-12-31T10:19:27.390Z,96445.22
2022-12-31T10:23:15.166Z,96446.22
2022-12-31T10:26:35.030Z,96445.88
2022-12-31T10:29:45.646Z,96448.19
2022-12-31T10:33:06.344Z,96436.97
2022-12-31T10:36:28.590Z,96426.56
2022-12-31T10:39:48.361Z,96435.09
2022-12-31T10:42:56.032Z,96431.94
2022-12-31T10:46:39.749Z,96441.28
2022-12-31T10:49:59.951Z,96427.53
2022-12-31T10:53:11.771Z,96428.00
2022-12-31T10:56:37.867Z,96426.50
2022-12-31T11:00:17.393Z,96423.44
2022-12-31T11:03:45.823Z,96428.13
2022-12-31T11:07:24.073Z,96421.22
2022-12-31T11:10:44.009Z,96411.97
2022-12-31T11:13:55.275Z,96416.13
2022-12-31T11:17:20.585Z,96412.56
2022-12-31T11:20:37.001Z,96422.44
2022-12-31T11:23:44.562Z,96413.66
2022-12-31T11:26:46.529Z,96412.25
2022-12-31T11:29:57.020Z,96403.03
2022-12-31T11:33:04.870Z,96399.78
2022-12-31T11:36:38.598Z,96393.22
2022-12-31T11:39:52.553Z,96384.63
2022-12-31T11:43:16.053Z,96383.06
2022-12-31T11:46:39.519Z,96375.31
2022-12-31T11:49:56.447Z,96382.16
2022-12-31T11:53:23.974Z,96381.47
2022-12-31T11:56:33.999Z,96382.22
2022-12-31T11:59:35.595Z,96386.91
2022-12-31T12:02:45.987Z,96382.47
2022-12-31T12:05:47.980Z,96382.59
2022-12-31T12:08:50.647Z,96374.81
2022-12-31T12:12:01.352Z,96371.84
2022-12-31T12:15:07.826Z,96364.91
2022-12-31T12:18:23.146Z,96367.69
2022-12-31T12:21:25.960Z,96346.06
2022-12-31T12:24:29.975Z,96350.53
2022-12-31T12:27:35.535Z,96347.53
2022-12-31T12:30:38.999Z,96343.91
2022-12-31T12:33:43.370Z,96342.34
2022-12-31T12:36:48.446Z,96323.28
2022-12-31T12:40:22.139Z,96335.44
2022-12-31T12:43:30.437Z,96325.34
2022-12-31T12:46:36.943Z,96332.66
2022-12-31T12:49:40.564Z,96318.41
2022-12-31T12:53:12.837Z,96316.81
2022-12-31T12:56:34.127Z,96311.72
2022-12-31T12:59:57.559Z,96321.94
2022-12-31T13:03:08.607Z,96314.28
2022-12-31T13:06:25.149Z,96313.28
2022-12-31T13:09:46.365Z,96316.44
2022-12-31T13:16:54.749Z,96315.84
2022-12-31T13:20:13.070Z,96307.78
2022-12-31T13:23:39.322Z,96301.34
2022-12-31T13:27:17.255Z,96314.66
2022-12-31T13:30:22.249Z,96313.41
2022-12-31T13:33:28.273Z,96312.38
2022-12-31T13:36:32.949Z,96314.91
2022-12-31T13:39:40.885Z,96309.69
2022-12-31T13:43:03.790Z,96310.53
2022-12-31T13:46:32.253Z,96312.19
2022-12-31T13:49:43.076Z,96306.16
2022-12-31T13:52:50.872Z,96321.72
2022-12-31T13:55:59.634Z,96312.78
2022-12-31T13:59:19.747Z,96318.38
2022-12-31T14:03:05.789Z,96314.19
2022-12-31T14:06:17.673Z,96324.31
2022-12-31T14:09:27.748Z,96319.31
2022-12-31T14:12:50.150Z,96327.78
2022-12-31T14:16:04.461Z,96320.28
2022-12-31T14:19:34.202Z,96331.41
2022-12-31T14:22:56.446Z,96331.31
2022-12-31T14:26:04.486Z,96324.00
2022-12-31T14:29:20.977Z,96331.16
2022-12-31T14:32:39.666Z,96325.78
2022-12-31T14:36:10.833Z,96329.91
2022-12-31T14:39:29.249Z,96322.38
2022-12-31T14:43:02.360Z,96327.31
2022-12-31T14:46:30.386Z,96334.09
2022-12-31T14:49:50.413Z,96341.94
2022-12-31T14:52:59.567Z,96346.22
2022-12-31T14:56:04.552Z,96357.97
2022-12-31T14:59:25.046Z,96349.22
2022-12-31T15:02:34.765Z,96354.81
2022-12-31T15:05:56.815Z,96364.16
2022-12-31T15:09:11.000Z,96366.56
2022-12-31T15:12:34.077Z,96365.63
2022-12-31T15:16:09.434Z,96365.59
2022-12-31T15:19:54.090Z,96353.25
2022-12-31T15:22:56.355Z,96355.78
2022-12-31T15:26:00.739Z,96351.97
2022-12-31T15:29:21.502Z,96371.97
2022-12-31T15:32:36.854Z,96367.31
2022-12-31T15:35:54.443Z,96362.31
2022-12-31T15:39:11.317Z,96351.09
2022-12-31T15:42:49.808Z,96372.22
2022-12-31T15:45:56.504Z,96376.25
2022-12-31T15:49:07.858Z,96371.25
2022-12-31T15:52:25.580Z,96370.72
2022-12-31T15:55:33.124Z,96370.06
2022-12-31T15:58:37.031Z,96354.47
2022-12-31T16:01:41.241Z,96352.41
2022-12-31T16:04:44.755Z,96351.56
2022-12-31T16:07:47.193Z,96349.22
2022-12-31T16:10:49.049Z,96365.25
2022-12-31T16:13:54.421Z,96367.22
2022-12-31T16:16:59.745Z,96367.03
2022-12-31T16:20:20.048Z,96367.69
2022-12-31T16:23:27.496Z,96373.84
2022-12-31T16:26:42.300Z,96368.31
2022-12-31T16:29:53.999Z,96358.56
2022-12-31T16:33:02.878Z,96361.22
2022-12-31T16:36:05.241Z,96364.50
2022-12-31T16:39:24.451Z,96354.47
2022-12-31T16:42:28.687Z,96361.13
2022-12-31T16:45:36.311Z,96355.06
2022-12-31T16:48:38.576Z,96343.69
2022-12-31T16:51:40.468Z,96361.41
2022-12-31T16:54:46.779Z,96360.19
2022-12-31T16:57:56.808Z,96360.53
2022-12-31T17:01:20.656Z,96356.47
2022-12-31T17:04:24.510Z,96368.50
2022-12-31T17:07:30.161Z,96373.44
2022-12-31T17:10:36.633Z,96371.25
2022-12-31T17:13:38.316Z,96382.25
2022-12-31T17:16:57.753Z,96373.72
2022-12-31T17:20:09.089Z,96393.72
2022-12-31T17:23:22.692Z,96374.66
2022-12-31T17:32:01.560Z,96395.41
2022-12-31T17:35:23.360Z,96389.50
2022-12-31T17:38:31.047Z,96384.31
2022-12-31T17:41:32.571Z,96396.16
2022-12-31T17:44:37.314Z,96388.44
2022-12-31T17:47:41.315Z,96394.13
2022-12-31T17:50:50.644Z,96391.75
2022-12-31T17:53:52.287Z,96397.41
2022-12-31T17:56:54.068Z,96397.69
2022-12-31T17:59:56.306Z,96404.19
2022-12-31T18:02:57.863Z,96401.28
2022-12-31T18:05:59.715Z,96405.94
2022-12-31T18:09:01.206Z,96408.22
2022-12-31T18:12:05.830Z,96420.06
2022-12-31T18:15:08.232Z,96424.00
2022-12-31T18:18:27.703Z,96435.13
2022-12-31T18:21:32.624Z,96434.59
2022-12-31T18:24:34.829Z,96447.25
2022-12-31T18:27:36.358Z,96443.88
2022-12-31T18:30:38.169Z,96436.78
2022-12-31T18:33:39.693Z,96442.81
2022-12-31T18:36:41.881Z,96450.94
2022-12-31T18:39:43.431Z,96453.06
2022-12-31T18:42:45.109Z,96444.81
2022-12-31T18:45:47.839Z,96461.00
2022-12-31T18:48:49.427Z,96456.94
2022-12-31T18:51:54.093Z,96461.56
2022-12-31T18:54:55.625Z,96454.84
2022-12-31T18:57:57.175Z,96459.66
2022-12-31T19:00:58.812Z,96459.94
2022-12-31T19:04:10.718Z,96460.09
2022-12-31T19:07:12.279Z,96465.72
2022-12-31T19:10:14.140Z,96465.16
2022-12-31T19:13:17.563Z,96466.16
2022-12-31T19:16:19.265Z,96469.13
2022-12-31T19:19:21.436Z,96462.25
2022-12-31T19:22:22.939Z,96466.88
2022-12-31T19:25:33.684Z,96467.00
2022-12-31T19:28:35.192Z,96456.66
2022-12-31T19:31:36.856Z,96463.94
2022-12-31T19:34:38.364Z,96461.59
2022-12-31T19:37:41.360Z,96477.72
2022-12-31T19:40:42.904Z,96470.84
2022-12-31T19:43:45.562Z,96463.72
2022-12-31T19:46:47.164Z,96480.28
2022-12-31T19:49:48.713Z,96479.56
2022-12-31T19:52:51.706Z,96470.06
2022-12-31T19:55:53.968Z,96462.34
2022-12-31T19:58:55.503Z,96461.63
2022-12-31T20:01:57.201Z,96469.94
2022-12-31T20:04:58.889Z,96472.88
2022-12-31T20:08:00.449Z,96472.16
2022-12-31T20:11:14.079Z,96475.13
2022-12-31T20:14:15.656Z,96472.06
2022-12-31T20:17:17.221Z,96467.00
2022-12-31T20:20:18.784Z,96469.09
2022-12-31T20:23:20.319Z,96470.25
2022-12-31T20:26:23.489Z,96473.19
2022-12-31T20:29:25.053Z,96466.59
2022-12-31T20:32:26.576Z,96493.25
2022-12-31T20:35:28.117Z,96480.31
2022-12-31T20:38:29.884Z,96481.44
2022-12-31T20:41:32.589Z,96484.09
2022-12-31T20:44:34.279Z,96473.72
2022-12-31T20:47:36.449Z,96478.38
2022-12-31T20:50:37.970Z,96477.66
2022-12-31T20:53:40.148Z,96475.97
2022-12-31T20:56:42.319Z,96474.41
2022-12-31T20:59:43.849Z,96464.91
2022-12-31T21:02:51.515Z,96474.84
2022-12-31T21:05:58.197Z,96470.63
2022-12-31T21:09:01.922Z,96472.47
2022-12-31T21:12:22.497Z,96466.59
2022-12-31T21:15:24.127Z,96470.38
2022-12-31T21:18:25.710Z,96476.81
2022-12-31T21:21:27.426Z,96476.13
2022-12-31T21:24:29.065Z,96477.94
2022-12-31T21:27:30.960Z,96481.88
2022-12-31T21:30:32.511Z,96475.69
2022-12-31T21:33:34.891Z,96476.94
2022-12-31T21:36:36.420Z,96471.75
2022-12-31T21:39:38.010Z,96476.25
2022-12-31T21:42:39.614Z,96479.06
2022-12-31T21:45:41.785Z,96481.00
2022-12-31T21:48:43.295Z,96473.16
2022-12-31T21:52:03.440Z,96478.78
2022-12-31T21:55:24.558Z,96483.25
2022-12-31T21:58:28.000Z,96482.66
2022-12-31T22:01:48.815Z,96492.59
2022-12-31T22:05:14.839Z,96491.91
2022-12-31T22:08:11.953Z,96490.22
2022-12-31T22:11:14.917Z,96499.19
2022-12-31T22:14:16.496Z,96492.31
2022-12-31T22:17:18.042Z,96498.47
2022-12-31T22:20:29.124Z,96498.47
2022-12-31T22:23:31.750Z,96489.66
2022-12-31T22:26:33.312Z,96498.34
2022-12-31T22:29:34.838Z,96502.94
2022-12-31T22:32:36.373Z,96501.97
2022-12-31T22:35:37.926Z,96490.50
2022-12-31T22:38:39.671Z,96502.81
2022-12-31T22:41:41.687Z,96509.69
2022-12-31T22:44:43.196Z,96515.88
2022-12-31T22:47:44.726Z,96518.53
2022-12-31T22:50:54.582Z,96514.72
2022-12-31T22:53:56.095Z,96515.44
2022-12-31T22:56:57.638Z,96519.66
2022-12-31T22:59:59.174Z,96520.50
2022-12-31T23:03:00.800Z,96516.16
2022-12-31T23:06:02.569Z,96512.22
2022-12-31T23:09:22.721Z,96506.78
2022-12-31T23:12:24.446Z,96515.47
2022-12-31T23:15:44.415Z,96516.19
2022-12-31T23:19:05.735Z,96520.50
2022-12-31T23:22:25.634Z,96521.09
2022-12-31T23:25:27.222Z,96513.50
2022-12-31T23:28:28.794Z,96503.56
2022-12-31T23:31:30.606Z,96507.78
2022-12-31T23:34:32.927Z,96517.31
2022-12-31T23:37:34.507Z,96510.88
2022-12-31T23:40:36.053Z,96494.31
2022-12-31T23:43:37.550Z,96512.84
2022-12-31T23:46:39.780Z,96510.31
2022-12-31T23:49:41.344Z,96518.16
2022-12-31T23:52:42.866Z,96522.66
2022-12-31T23:55:44.454Z,96534.13
2022-12-31T23:58:46.414Z,96541.16
